Eldridge, IA (52748)

12:35 PM CST on January 25, 2015 (GMT -0600)
West Hickory Street | Change Station
CLOSE
Current Station
Personal Weather Station
Location: Eldridge, IA
Elevation: 774 ft
Nearby Weather Stations

Elev 774 ft 41.65 °N, 90.59 °W | Updated 3 minutes ago

Snow
Snow
28.5 °F
Feels Like 16 °F
N
19.0
Wind Variable Wind from NE
Gusts 20.0 mph

Today
High -- | Low -- °F
--% Chance of Precip.
Yesterday
High -- | Low -- °F
Precip. -- in
7:20 AM 5:08 PM
Waxing Crescent, 34% visible
Pressure 29.82 in
Visibility 3.0 miles
Clouds Few 1300 ft
Scattered Clouds 2300 ft
Overcast 2800 ft
Windchill 16 °F
Dew Point 27 °F
Humidity 94%
Rainfall 0.00 in
Snow Depth Not available.
UV 1 out of 12
Pollen .10 out of 12
Air Quality Not available.
Flu Activity Not available.
SPECI KDVN 251810Z AUTO 04017KT 3SM -SN FEW013 SCT023 OVC028 M02/M04 A2982 RMK AO2 PK WND 04027/1755 P0000 T10171044

More Conditions Fewer Conditions

Pressure 29.82 in
Visibility 3.0 miles
Clouds Few 1300 ft
Scattered Clouds 2300 ft
Overcast 2800 ft
Windchill 16 °F
Dew Point 27 °F
Humidity 94%
Rainfall 0.00 in
Snow Depth Not available.
UV 1 out of 12
Pollen .10 out of 12
Air Quality Not available.
Flu Activity Not available.
SPECI KDVN 251810Z AUTO 04017KT 3SM -SN FEW013 SCT023 OVC028 M02/M04 A2982 RMK AO2 PK WND 04027/1755 P0000 T10171044

More Conditions Fewer Conditions

10-Day Weather Forecast

Almanac

Astronomy

Jan. 25, 2015 Rise Set
Actual Time
Civil Twilight
Nautical Twilight
Astronomical Twilight
Moon
Length of Visible Light
Length of Day
Tomorrow will be .
, % of the Moon is Illuminated

Today's Extremes

State Highs State Lows

Community

WunderPhotos

Upload Photos

1,790,015 photos uploaded!

WunderBlogs® & News

Nearby

Air Quality

  Air Quality AQ Index Pollutant
Not available.

Snow Depth

Station Depth Elevation

Earthquake Activity

City Distance Mag. Time & Date
Minimum magnitude displayed is 2.5.

Coastal Water Temperatures

Place Temperature

Nearby Weather Stations